createdAt,value
2019-05-09T00:02:21.279Z,26.40
2019-05-09T00:04:53.152Z,26.10
2019-05-09T00:07:23.311Z,26.07
2019-05-09T00:09:53.435Z,25.50
2019-05-09T00:12:23.494Z,25.30
2019-05-09T00:14:53.979Z,26.00
2019-05-09T00:17:23.848Z,27.03
2019-05-09T00:19:55.441Z,27.97
2019-05-09T00:22:25.214Z,27.37
2019-05-09T00:24:54.919Z,26.63
2019-05-09T00:27:24.685Z,25.93
2019-05-09T00:29:54.543Z,30.27
2019-05-09T00:32:26.262Z,27.77
2019-05-09T00:35:04.004Z,26.40
2019-05-09T00:37:53.548Z,26.27
2019-05-09T00:40:24.449Z,29.70
2019-05-09T00:42:55.861Z,28.43
2019-05-09T00:45:33.424Z,25.67
2019-05-09T00:48:03.544Z,30.87
2019-05-09T00:50:34.168Z,30.53
2019-05-09T00:53:04.143Z,27.40
2019-05-09T00:55:33.873Z,26.20
2019-05-09T00:58:04.170Z,30.13
2019-05-09T01:00:34.300Z,27.80
2019-05-09T01:03:04.093Z,28.33
2019-05-09T01:05:34.316Z,27.37
2019-05-09T01:08:04.790Z,25.37
2019-05-09T01:10:34.461Z,29.03
2019-05-09T01:13:04.223Z,29.23
2019-05-09T01:15:34.125Z,26.60
2019-05-09T01:18:04.598Z,33.53
2019-05-09T01:20:34.558Z,27.97
2019-05-09T01:23:04.338Z,27.67
2019-05-09T01:25:34.113Z,29.47
2019-05-09T01:28:03.877Z,26.30
2019-05-09T01:30:33.795Z,25.47
2019-05-09T01:33:13.765Z,30.40
2019-05-09T01:35:43.543Z,27.73
2019-05-09T01:38:14.282Z,25.43
2019-05-09T01:40:44.281Z,26.77
2019-05-09T01:43:14.099Z,25.43
2019-05-09T01:45:47.005Z,24.77
2019-05-09T01:48:19.937Z,25.57
2019-05-09T01:50:49.618Z,24.10
2019-05-09T01:53:21.059Z,25.37
2019-05-09T01:56:00.313Z,21.87
2019-05-09T01:58:34.245Z,28.93
2019-05-09T02:01:06.001Z,24.07
2019-05-09T02:03:35.721Z,25.30
2019-05-09T02:06:05.933Z,28.27
2019-05-09T02:08:35.634Z,25.13
2019-05-09T02:11:05.565Z,23.30
2019-05-09T02:13:35.285Z,24.50
2019-05-09T02:16:09.119Z,25.30
2019-05-09T02:18:44.125Z,26.40
2019-05-09T02:21:14.636Z,25.27
2019-05-09T02:23:44.492Z,23.80
2019-05-09T02:26:14.352Z,25.60
2019-05-09T02:28:44.054Z,21.37
2019-05-09T02:31:16.167Z,22.93
2019-05-09T02:33:45.893Z,22.10
2019-05-09T02:36:18.676Z,23.53
2019-05-09T02:38:48.824Z,24.70
2019-05-09T02:41:19.637Z,25.20
2019-05-09T02:43:50.017Z,23.80
2019-05-09T02:46:21.740Z,26.57
2019-05-09T02:48:51.536Z,23.23
2019-05-09T02:51:21.234Z,24.27
2019-05-09T02:53:51.078Z,22.20
2019-05-09T02:56:20.974Z,22.93
2019-05-09T02:58:59.018Z,25.80
2019-05-09T03:01:30.658Z,22.73
2019-05-09T03:04:00.524Z,22.83
2019-05-09T03:06:30.413Z,22.20
2019-05-09T03:09:01.797Z,28.13
2019-05-09T03:11:31.665Z,21.33
2019-05-09T03:14:01.867Z,23.67
2019-05-09T03:16:31.586Z,22.37
2019-05-09T03:19:01.378Z,22.43
2019-05-09T03:21:38.760Z,22.37
2019-05-09T03:24:09.782Z,22.10
2019-05-09T03:26:39.895Z,25.23
2019-05-09T03:29:11.404Z,23.13
2019-05-09T03:31:42.759Z,23.67
2019-05-09T03:34:12.494Z,26.77
2019-05-09T03:36:42.318Z,27.03
2019-05-09T03:39:12.188Z,28.43
2019-05-09T03:41:42.106Z,30.33
2019-05-09T03:44:11.974Z,30.07
2019-05-09T03:46:47.637Z,32.63
2019-05-09T03:49:21.868Z,31.27
2019-05-09T03:51:51.614Z,29.53
2019-05-09T03:54:21.346Z,30.30
2019-05-09T03:57:10.770Z,33.07
2019-05-09T03:59:40.501Z,37.73
2019-05-09T04:02:10.467Z,35.03
2019-05-09T04:04:40.184Z,33.77
2019-05-09T04:07:09.958Z,36.20
2019-05-09T04:09:39.932Z,33.93
2019-05-09T04:12:09.805Z,32.13
2019-05-09T04:14:40.016Z,34.27
2019-05-09T04:17:11.592Z,32.67
2019-05-09T04:19:41.401Z,35.10
2019-05-09T04:22:11.189Z,30.23
2019-05-09T04:24:41.021Z,32.47
2019-05-09T04:27:12.527Z,32.33
2019-05-09T04:29:42.347Z,31.40
2019-05-09T04:32:12.145Z,31.70
2019-05-09T04:34:42.015Z,34.27
2019-05-09T04:37:12.335Z,35.67
2019-05-09T04:39:42.057Z,33.57
2019-05-09T04:42:11.748Z,34.43
2019-05-09T04:44:43.102Z,36.47
2019-05-09T04:47:12.837Z,36.93
2019-05-09T04:49:45.122Z,37.77
2019-05-09T04:52:13.920Z,39.77
2019-05-09T04:54:43.716Z,38.67
2019-05-09T04:57:13.425Z,34.53
2019-05-09T04:59:43.113Z,36.83
2019-05-09T05:02:20.496Z,39.90
2019-05-09T05:04:50.354Z,40.63
2019-05-09T05:07:20.104Z,34.60
2019-05-09T05:09:49.877Z,35.50
2019-05-09T05:12:19.549Z,34.23
2019-05-09T05:14:49.396Z,33.30
2019-05-09T05:17:19.142Z,35.20
2019-05-09T05:19:49.663Z,37.33
2019-05-09T05:22:28.356Z,37.63
2019-05-09T05:25:00.051Z,37.93
2019-05-09T05:27:29.784Z,38.13
2019-05-09T05:29:59.707Z,33.67
2019-05-09T05:32:43.057Z,33.03
2019-05-09T05:35:32.980Z,37.60
2019-05-09T05:38:02.680Z,34.03
2019-05-09T05:40:33.909Z,29.27
2019-05-09T05:43:03.830Z,31.67
2019-05-09T05:45:37.381Z,29.20
2019-05-09T05:48:14.142Z,29.37
2019-05-09T05:50:43.935Z,28.67
2019-05-09T05:53:13.644Z,32.03
2019-05-09T05:55:43.378Z,30.80
2019-05-09T05:58:13.134Z,35.47
2019-05-09T06:00:42.930Z,27.00
2019-05-09T06:03:12.679Z,29.30
2019-05-09T06:05:42.441Z,34.77
2019-05-09T06:08:12.171Z,32.20
2019-05-09T06:10:41.947Z,29.47
2019-05-09T06:13:11.738Z,34.10
2019-05-09T06:15:41.790Z,31.83
2019-05-09T06:18:11.545Z,31.20
2019-05-09T06:20:41.618Z,32.10
2019-05-09T06:23:11.374Z,25.63
2019-05-09T06:25:41.117Z,23.77
2019-05-09T06:28:10.792Z,22.37
2019-05-09T06:30:41.326Z,20.77
2019-05-09T06:33:11.326Z,21.63
2019-05-09T06:35:41.016Z,18.70
2019-05-09T06:38:10.880Z,18.13
2019-05-09T06:40:40.798Z,19.67
2019-05-09T06:43:18.347Z,23.40
2019-05-09T06:46:08.143Z,20.60
2019-05-09T06:48:38.911Z,17.77
2019-05-09T06:51:08.675Z,18.30
2019-05-09T06:53:38.396Z,19.97
2019-05-09T06:56:08.293Z,13.20
2019-05-09T06:58:39.760Z,14.43
2019-05-09T07:01:18.246Z,18.40
2019-05-09T07:03:57.548Z,17.07
2019-05-09T07:06:31.666Z,17.03
2019-05-09T07:09:03.187Z,16.77
2019-05-09T07:11:33.012Z,22.60
2019-05-09T07:14:02.803Z,19.67
2019-05-09T07:16:32.689Z,19.50
2019-05-09T07:19:02.421Z,24.07
2019-05-09T07:21:49.669Z,22.30
2019-05-09T07:24:20.376Z,20.50
2019-05-09T07:26:50.099Z,20.83
2019-05-09T07:29:20.043Z,18.80
2019-05-09T07:31:51.414Z,20.93
2019-05-09T07:34:22.981Z,21.83
2019-05-09T07:36:52.752Z,26.33
2019-05-09T07:39:22.691Z,18.83
2019-05-09T07:41:52.420Z,20.43
2019-05-09T07:44:22.186Z,19.27
2019-05-09T07:46:59.576Z,20.23
2019-05-09T07:49:30.018Z,20.30
2019-05-09T07:52:06.092Z,19.23
2019-05-09T07:54:31.278Z,22.70
2019-05-09T07:57:01.068Z,16.77
2019-05-09T07:59:30.813Z,20.20
2019-05-09T08:02:00.639Z,16.97
2019-05-09T08:04:30.372Z,15.97
2019-05-09T08:07:00.335Z,16.00
2019-05-09T08:09:30.071Z,13.60
2019-05-09T08:11:59.856Z,16.23
2019-05-09T08:14:29.606Z,16.00
2019-05-09T08:16:59.388Z,14.40
2019-05-09T08:19:29.379Z,17.10
2019-05-09T08:21:59.126Z,16.47
2019-05-09T08:24:28.945Z,21.10
2019-05-09T08:26:58.714Z,17.73
2019-05-09T08:29:28.616Z,14.87
2019-05-09T08:31:58.526Z,17.70
2019-05-09T08:34:28.598Z,21.60
2019-05-09T08:36:58.386Z,25.10
2019-05-09T08:39:28.287Z,20.83
2019-05-09T08:41:59.453Z,23.10
2019-05-09T08:44:31.216Z,20.70
2019-05-09T08:47:01.213Z,22.70
2019-05-09T08:49:41.839Z,22.73
2019-05-09T08:52:16.326Z,25.37
2019-05-09T08:54:48.846Z,21.93
2019-05-09T08:57:18.740Z,23.77
2019-05-09T08:59:50.709Z,20.93
2019-05-09T09:02:22.337Z,21.10
2019-05-09T09:04:51.633Z,21.77
2019-05-09T09:07:21.353Z,23.63
2019-05-09T09:09:51.112Z,21.67
2019-05-09T09:12:30.392Z,23.33
2019-05-09T09:14:52.404Z,21.40
2019-05-09T09:17:22.158Z,25.67
2019-05-09T09:19:51.875Z,24.97
2019-05-09T09:22:22.481Z,29.33
2019-05-09T09:24:52.244Z,23.43
2019-05-09T09:27:22.240Z,32.80
2019-05-09T09:29:52.015Z,26.33
2019-05-09T09:32:21.799Z,30.97
2019-05-09T09:34:51.514Z,31.30
2019-05-09T09:37:21.374Z,31.67
2019-05-09T09:39:51.574Z,30.33
2019-05-09T09:42:21.400Z,27.53
2019-05-09T09:44:51.209Z,26.33
2019-05-09T09:47:23.465Z,26.87
2019-05-09T09:49:55.092Z,28.80
2019-05-09T09:52:24.004Z,30.53
2019-05-09T09:54:53.805Z,29.90
2019-05-09T09:57:23.889Z,35.87
2019-05-09T09:59:55.334Z,29.30
2019-05-09T10:02:27.939Z,30.20
2019-05-09T10:04:57.995Z,31.63
2019-05-09T10:07:28.053Z,31.27
2019-05-09T10:09:58.482Z,29.07
2019-05-09T10:12:29.134Z,33.47
2019-05-09T10:15:19.006Z,28.07
2019-05-09T10:17:58.974Z,28.17
2019-05-09T10:20:30.631Z,27.80
2019-05-09T10:23:11.130Z,30.47
2019-05-09T10:25:31.873Z,30.87
2019-05-09T10:28:01.638Z,28.00
2019-05-09T10:30:34.194Z,26.77
2019-05-09T10:33:04.111Z,28.73
2019-05-09T10:35:33.810Z,29.30
2019-05-09T10:38:03.627Z,32.93
2019-05-09T10:40:33.680Z,26.87
2019-05-09T10:43:08.218Z,28.47
2019-05-09T10:45:45.636Z,27.67
2019-05-09T10:48:15.402Z,29.17
2019-05-09T10:50:47.844Z,26.00
2019-05-09T10:53:17.985Z,34.20
2019-05-09T10:55:48.284Z,24.67
2019-05-09T10:58:20.238Z,30.63
2019-05-09T11:00:49.732Z,28.27
2019-05-09T11:03:20.064Z,23.77
2019-05-09T11:05:49.786Z,22.30
2019-05-09T11:08:20.055Z,16.97
2019-05-09T11:10:49.971Z,21.37
2019-05-09T11:13:20.186Z,17.60
2019-05-09T11:15:50.230Z,21.83
2019-05-09T11:18:20.049Z,21.00
2019-05-09T11:20:49.857Z,19.33
2019-05-09T11:23:19.745Z,20.60
2019-05-09T11:25:49.859Z,19.30
2019-05-09T11:28:19.765Z,22.23
2019-05-09T11:30:49.787Z,16.70
2019-05-09T11:33:19.662Z,17.77
2019-05-09T11:35:49.531Z,17.03
2019-05-09T11:38:32.181Z,17.43
2019-05-09T11:40:51.226Z,13.83
2019-05-09T11:43:21.104Z,18.23
2019-05-09T11:45:51.166Z,15.50
2019-05-09T11:48:21.402Z,12.43
2019-05-09T11:50:51.276Z,14.07
2019-05-09T11:53:21.115Z,20.10
2019-05-09T11:55:50.949Z,13.83
2019-05-09T11:58:20.818Z,12.30
2019-05-09T12:00:50.869Z,13.73
2019-05-09T12:03:20.743Z,10.27
2019-05-09T12:05:50.548Z,15.17
2019-05-09T12:08:20.345Z,14.53
2019-05-09T12:10:50.155Z,13.47
2019-05-09T12:13:21.685Z,15.77
2019-05-09T12:15:51.528Z,14.87
2019-05-09T12:18:21.272Z,13.80
2019-05-09T12:20:51.213Z,11.47
2019-05-09T12:23:21.159Z,13.67
2019-05-09T12:25:51.014Z,13.70
2019-05-09T12:28:21.107Z,13.13
2019-05-09T12:30:50.859Z,16.10
2019-05-09T12:33:20.794Z,19.73
2019-05-09T12:35:50.609Z,18.17
2019-05-09T12:38:20.567Z,17.97
2019-05-09T12:40:50.505Z,11.97
2019-05-09T12:43:20.374Z,10.10
2019-05-09T12:45:50.249Z,12.83
2019-05-09T12:48:20.231Z,14.43
2019-05-09T12:50:49.959Z,16.93
2019-05-09T12:53:22.774Z,15.53
2019-05-09T12:55:54.207Z,13.10
2019-05-09T12:58:29.794Z,12.07
2019-05-09T13:00:59.959Z,14.93
2019-05-09T13:03:30.126Z,13.80
2019-05-09T13:05:59.925Z,10.60
2019-05-09T13:08:30.167Z,9.70
2019-05-09T13:11:02.501Z,10.43
2019-05-09T13:13:32.289Z,9.37
2019-05-09T13:16:14.232Z,9.83
2019-05-09T13:19:02.701Z,9.23
2019-05-09T13:21:33.415Z,10.37
2019-05-09T13:24:03.377Z,13.63
2019-05-09T13:26:33.174Z,10.50
2019-05-09T13:29:03.062Z,11.77
2019-05-09T13:31:34.797Z,11.30
2019-05-09T13:34:04.462Z,12.77
2019-05-09T13:36:34.248Z,10.17
2019-05-09T13:39:08.406Z,11.30
2019-05-09T13:41:38.333Z,9.50
2019-05-09T13:44:13.709Z,12.13
2019-05-09T13:46:40.522Z,12.93
2019-05-09T13:49:14.295Z,13.00
2019-05-09T13:51:48.689Z,11.73
2019-05-09T13:54:13.597Z,17.20
2019-05-09T13:56:43.389Z,10.83
2019-05-09T13:59:13.251Z,15.80
2019-05-09T14:01:44.425Z,13.67
2019-05-09T14:04:14.315Z,12.33
2019-05-09T14:06:44.197Z,10.30
2019-05-09T14:09:14.073Z,7.87
2019-05-09T14:11:43.849Z,9.90
2019-05-09T14:14:13.593Z,7.90
2019-05-09T14:16:43.349Z,12.13
2019-05-09T14:19:39.513Z,8.80
2019-05-09T14:21:47.978Z,10.40
2019-05-09T14:24:19.172Z,7.80
2019-05-09T14:26:48.593Z,10.87
2019-05-09T14:29:20.430Z,8.77
2019-05-09T14:31:49.978Z,11.37
2019-05-09T14:34:19.967Z,8.40
2019-05-09T14:36:49.863Z,9.47
2019-05-09T14:39:19.769Z,8.03
2019-05-09T14:41:49.750Z,11.37
2019-05-09T14:44:19.593Z,8.73
2019-05-09T14:46:52.994Z,9.10
2019-05-09T14:49:22.782Z,10.60
2019-05-09T14:51:52.520Z,7.80
2019-05-09T14:54:22.326Z,12.93
2019-05-09T14:56:53.039Z,8.63
2019-05-09T14:59:22.828Z,12.33
2019-05-09T15:01:52.732Z,12.13
2019-05-09T15:04:22.727Z,10.07
2019-05-09T15:06:52.483Z,9.07
2019-05-09T15:09:22.358Z,11.43
2019-05-09T15:11:52.185Z,9.53
2019-05-09T15:14:22.119Z,10.37
2019-05-09T15:16:51.937Z,10.43
2019-05-09T15:19:21.825Z,11.27
2019-05-09T15:21:51.556Z,9.33
2019-05-09T15:24:21.314Z,5.93
2019-05-09T15:26:51.132Z,12.40
2019-05-09T15:29:20.851Z,6.30
2019-05-09T15:31:54.250Z,10.87
2019-05-09T15:34:22.146Z,12.63
2019-05-09T15:36:52.030Z,9.07
2019-05-09T15:39:21.823Z,10.07
2019-05-09T15:41:52.050Z,11.00
2019-05-09T15:44:23.515Z,13.07
2019-05-09T15:47:18.380Z,9.20
2019-05-09T15:49:49.412Z,12.93
2019-05-09T15:52:19.349Z,6.17
2019-05-09T15:54:49.114Z,14.73
2019-05-09T15:57:18.860Z,7.77
2019-05-09T15:59:48.651Z,9.43
2019-05-09T16:02:19.245Z,9.20
2019-05-09T16:04:49.112Z,8.70
2019-05-09T16:07:18.914Z,4.63
2019-05-09T16:09:48.809Z,7.10
2019-05-09T16:12:18.675Z,7.53
2019-05-09T16:14:48.729Z,6.17
2019-05-09T16:17:19.221Z,5.03
2019-05-09T16:19:49.268Z,6.27
2019-05-09T16:22:19.252Z,4.07
2019-05-09T16:24:48.969Z,4.63
2019-05-09T16:27:18.707Z,6.13
2019-05-09T16:29:48.768Z,5.80
2019-05-09T16:32:18.809Z,5.77
2019-05-09T16:34:48.577Z,5.00
2019-05-09T16:37:18.388Z,7.07
2019-05-09T16:39:48.122Z,6.77
2019-05-09T16:42:18.018Z,10.07
2019-05-09T16:44:48.183Z,11.90
2019-05-09T16:47:21.873Z,7.57
2019-05-09T16:49:50.661Z,10.13
2019-05-09T16:52:20.464Z,8.63
2019-05-09T16:54:51.855Z,10.17
2019-05-09T16:57:21.854Z,9.83
2019-05-09T16:59:51.590Z,9.40
2019-05-09T17:02:24.918Z,8.47
2019-05-09T17:04:53.067Z,10.30
2019-05-09T17:07:22.830Z,10.43
2019-05-09T17:09:52.801Z,10.43
2019-05-09T17:12:22.712Z,11.47
2019-05-09T17:14:52.591Z,19.03
2019-05-09T17:17:22.509Z,14.90
2019-05-09T17:19:52.442Z,13.00
2019-05-09T17:22:24.092Z,14.57
2019-05-09T17:24:53.842Z,17.47
2019-05-09T17:27:23.727Z,12.50
2019-05-09T17:29:53.563Z,21.53
2019-05-09T17:32:23.470Z,14.03
2019-05-09T17:34:53.307Z,15.40
2019-05-09T17:37:23.176Z,17.57
2019-05-09T17:39:53.076Z,15.47
2019-05-09T17:42:22.896Z,19.50
2019-05-09T17:44:52.652Z,9.93
2019-05-09T17:47:22.461Z,11.37
2019-05-09T17:49:52.558Z,15.00
2019-05-09T17:52:22.348Z,14.33
2019-05-09T17:54:52.172Z,14.40
2019-05-09T17:57:22.016Z,15.27
2019-05-09T17:59:51.980Z,15.67
2019-05-09T18:02:22.737Z,22.33
2019-05-09T18:04:52.557Z,15.43
2019-05-09T18:07:22.358Z,18.40
2019-05-09T18:09:52.247Z,15.20
2019-05-09T18:12:22.137Z,10.23
2019-05-09T18:14:52.008Z,11.23
2019-05-09T18:17:21.773Z,13.13
2019-05-09T18:19:51.528Z,11.50
2019-05-09T18:22:21.443Z,13.07
2019-05-09T18:24:51.260Z,12.53
2019-05-09T18:27:21.068Z,10.63
2019-05-09T18:29:50.890Z,11.07
2019-05-09T18:32:34.765Z,12.33
2019-05-09T18:35:16.849Z,10.53
2019-05-09T18:37:48.120Z,15.13
2019-05-09T18:40:18.801Z,11.87
2019-05-09T18:42:48.963Z,15.73
2019-05-09T18:45:19.958Z,15.43
2019-05-09T18:47:50.069Z,16.83
2019-05-09T18:50:19.973Z,91.30
2019-05-09T18:52:49.806Z,55.17
2019-05-09T18:55:20.119Z,47.97
2019-05-09T18:57:50.098Z,23.73
2019-05-09T19:00:21.624Z,14.70
2019-05-09T19:02:51.688Z,14.63
2019-05-09T19:05:21.793Z,11.40
2019-05-09T19:07:51.636Z,12.37
2019-05-09T19:10:21.504Z,10.67
2019-05-09T19:12:51.281Z,12.97
2019-05-09T19:15:34.971Z,7.70
2019-05-09T19:18:23.605Z,11.57
2019-05-09T19:20:57.941Z,9.90
2019-05-09T19:23:27.764Z,10.70
2019-05-09T19:26:00.466Z,10.17
2019-05-09T19:28:31.886Z,10.47
2019-05-09T19:31:06.503Z,9.57
2019-05-09T19:33:36.298Z,9.40
2019-05-09T19:36:06.360Z,8.07
2019-05-09T19:38:37.751Z,9.90
2019-05-09T19:41:07.542Z,8.60
2019-05-09T19:43:37.383Z,7.90
2019-05-09T19:46:10.452Z,6.50
2019-05-09T19:48:40.533Z,7.30
2019-05-09T19:51:10.467Z,6.87
2019-05-09T19:53:40.383Z,10.57
2019-05-09T19:56:10.201Z,8.37
2019-05-09T19:58:40.030Z,6.50
2019-05-09T20:01:09.941Z,5.30
2019-05-09T20:03:39.898Z,4.20
2019-05-09T20:06:09.791Z,5.83
2019-05-09T20:08:39.631Z,5.50
2019-05-09T20:11:23.539Z,4.60
2019-05-09T20:13:57.603Z,6.27
2019-05-09T20:16:33.417Z,4.37
2019-05-09T20:19:05.149Z,5.33
2019-05-09T20:21:36.996Z,12.10
2019-05-09T20:24:09.330Z,3.73
2019-05-09T20:26:41.805Z,6.67
2019-05-09T20:29:12.014Z,3.80
2019-05-09T20:31:43.383Z,4.17
2019-05-09T20:34:13.993Z,6.07
2019-05-09T20:36:44.251Z,3.43
2019-05-09T20:39:16.380Z,3.57
2019-05-09T20:41:50.687Z,2.73
2019-05-09T20:44:22.124Z,4.63
2019-05-09T20:46:52.631Z,4.60
2019-05-09T20:49:30.199Z,3.60
2019-05-09T20:52:02.189Z,3.60
2019-05-09T20:54:34.541Z,5.33
2019-05-09T20:57:08.105Z,5.57
2019-05-09T20:59:43.488Z,4.97
2019-05-09T21:02:15.601Z,5.83
2019-05-09T21:04:48.543Z,3.97
2019-05-09T21:07:19.594Z,3.90
2019-05-09T21:10:03.396Z,5.27
2019-05-09T21:12:36.045Z,5.03
2019-05-09T21:15:09.733Z,4.53
2019-05-09T21:17:43.962Z,5.00
2019-05-09T21:20:15.348Z,6.00
2019-05-09T21:22:45.462Z,3.60
2019-05-09T21:25:15.498Z,4.00
2019-05-09T21:27:48.889Z,3.90
2019-05-09T21:30:22.158Z,7.07
2019-05-09T21:32:53.475Z,7.83
2019-05-09T21:35:23.356Z,5.73
2019-05-09T21:37:56.997Z,7.90
2019-05-09T21:40:26.849Z,4.70
2019-05-09T21:42:58.271Z,4.00
2019-05-09T21:45:29.219Z,3.80
2019-05-09T21:48:00.193Z,5.83
2019-05-09T21:50:31.154Z,3.43
2019-05-09T21:53:01.137Z,4.73
2019-05-09T21:55:30.993Z,3.70
2019-05-09T21:58:01.624Z,4.00
2019-05-09T22:00:35.656Z,8.27
2019-05-09T22:03:07.199Z,4.63
2019-05-09T22:05:37.677Z,4.27
2019-05-09T22:08:07.685Z,5.77
2019-05-09T22:10:37.544Z,4.67
2019-05-09T22:13:07.379Z,4.60
2019-05-09T22:15:37.230Z,6.80
2019-05-09T22:18:06.978Z,4.90
2019-05-09T22:20:36.650Z,5.70
2019-05-09T22:23:06.808Z,5.90
2019-05-09T22:25:36.627Z,4.03
2019-05-09T22:28:06.715Z,4.00
2019-05-09T22:30:36.395Z,3.93
2019-05-09T22:33:06.109Z,7.77
2019-05-09T22:35:35.807Z,5.03
2019-05-09T22:38:05.572Z,6.53
2019-05-09T22:40:35.282Z,7.17
2019-05-09T22:43:05.120Z,8.37
2019-05-09T22:45:35.036Z,3.83
2019-05-09T22:48:05.861Z,4.47
2019-05-09T22:50:35.597Z,5.97
2019-05-09T22:53:05.592Z,4.33
2019-05-09T22:55:37.939Z,5.30
2019-05-09T22:58:07.061Z,4.50
2019-05-09T23:00:37.053Z,7.27
2019-05-09T23:03:06.911Z,7.50
2019-05-09T23:05:36.721Z,6.50
2019-05-09T23:08:06.534Z,5.17
2019-05-09T23:10:36.281Z,6.10
2019-05-09T23:13:06.067Z,5.37
2019-05-09T23:15:38.053Z,6.57
2019-05-09T23:18:07.855Z,4.70
2019-05-09T23:20:47.994Z,8.87
2019-05-09T23:23:22.419Z,7.40
2019-05-09T23:25:52.212Z,4.40
2019-05-09T23:28:22.106Z,5.30
2019-05-09T23:30:53.484Z,6.07
2019-05-09T23:33:24.811Z,7.63
2019-05-09T23:35:54.767Z,7.40
2019-05-09T23:38:24.618Z,4.57
2019-05-09T23:40:54.730Z,7.10
2019-05-09T23:43:24.475Z,6.73
2019-05-09T23:45:54.434Z,7.23
2019-05-09T23:48:55.184Z,6.30
2019-05-09T23:51:26.612Z,4.30
2019-05-09T23:53:55.567Z,7.77
2019-05-09T23:56:43.106Z,5.07
2019-05-09T23:59:30.787Z,10.13
